sensor_id;sensor_type;location;lat;lon;timestamp;P1;durP1;ratioP1;P2;durP2;ratioP2
56997;SDS011;42890;44.244;22.530;2022-10-16T00:01:42;27.70;;;24.00;;
56997;SDS011;42890;44.244;22.530;2022-10-16T00:04:08;28.25;;;25.35;;
56997;SDS011;42890;44.244;22.530;2022-10-16T00:06:35;28.58;;;25.55;;
56997;SDS011;42890;44.244;22.530;2022-10-16T00:09:01;29.23;;;26.05;;
56997;SDS011;42890;44.244;22.530;2022-10-16T00:11:29;27.73;;;24.73;;
56997;SDS011;42890;44.244;22.530;2022-10-16T00:13:58;34.47;;;30.85;;
56997;SDS011;42890;44.244;22.530;2022-10-16T00:16:25;49.22;;;41.85;;
56997;SDS011;42890;44.244;22.530;2022-10-16T00:18:52;48.90;;;43.58;;
56997;SDS011;42890;44.244;22.530;2022-10-16T00:21:22;42.72;;;37.92;;
56997;SDS011;42890;44.244;22.530;2022-10-16T00:23:56;62.20;;;48.90;;
56997;SDS011;42890;44.244;22.530;2022-10-16T00:26:24;49.92;;;43.67;;
56997;SDS011;42890;44.244;22.530;2022-10-16T00:28:50;56.97;;;48.33;;
56997;SDS011;42890;44.244;22.530;2022-10-16T00:31:18;47.30;;;40.45;;
56997;SDS011;42890;44.244;22.530;2022-10-16T00:33:44;41.20;;;32.45;;
56997;SDS011;42890;44.244;22.530;2022-10-16T00:36:11;38.42;;;34.33;;
56997;SDS011;42890;44.244;22.530;2022-10-16T00:38:38;48.70;;;30.15;;
56997;SDS011;42890;44.244;22.530;2022-10-16T00:41:06;33.50;;;30.23;;
56997;SDS011;42890;44.244;22.530;2022-10-16T00:46:02;32.72;;;29.30;;
56997;SDS011;42890;44.244;22.530;2022-10-16T00:48:30;35.28;;;31.48;;
56997;SDS011;42890;44.244;22.530;2022-10-16T00:50:56;33.83;;;30.35;;
56997;SDS011;42890;44.244;22.530;2022-10-16T00:53:23;34.72;;;29.17;;
56997;SDS011;42890;44.244;22.530;2022-10-16T00:55:49;33.95;;;27.13;;
56997;SDS011;42890;44.244;22.530;2022-10-16T00:58:15;26.65;;;23.88;;
56997;SDS011;42890;44.244;22.530;2022-10-16T01:00:41;27.40;;;22.40;;
56997;SDS011;42890;44.244;22.530;2022-10-16T01:06:36;22.95;;;20.67;;
56997;SDS011;42890;44.244;22.530;2022-10-16T01:11:17;24.38;;;21.98;;
56997;SDS011;42890;44.244;22.530;2022-10-16T01:13:46;25.40;;;19.23;;
56997;SDS011;42890;44.244;22.530;2022-10-16T01:16:15;19.23;;;17.23;;
56997;SDS011;42890;44.244;22.530;2022-10-16T01:21:22;20.70;;;18.50;;
56997;SDS011;42890;44.244;22.530;2022-10-16T01:23:51;20.13;;;17.83;;
56997;SDS011;42890;44.244;22.530;2022-10-16T01:31:31;22.08;;;18.70;;
56997;SDS011;42890;44.244;22.530;2022-10-16T01:37:04;25.10;;;22.48;;
56997;SDS011;42890;44.244;22.530;2022-10-16T01:39:32;19.60;;;17.60;;
56997;SDS011;42890;44.244;22.530;2022-10-16T01:42:03;17.85;;;15.98;;
56997;SDS011;42890;44.244;22.530;2022-10-16T01:44:31;18.58;;;16.80;;
56997;SDS011;42890;44.244;22.530;2022-10-16T01:46:58;19.77;;;17.00;;
56997;SDS011;42890;44.244;22.530;2022-10-16T01:49:25;20.58;;;16.75;;
56997;SDS011;42890;44.244;22.530;2022-10-16T01:51:53;25.10;;;20.67;;
56997;SDS011;42890;44.244;22.530;2022-10-16T01:54:21;24.65;;;19.33;;
56997;SDS011;42890;44.244;22.530;2022-10-16T01:56:48;21.52;;;19.42;;
56997;SDS011;42890;44.244;22.530;2022-10-16T01:59:17;22.38;;;19.52;;
56997;SDS011;42890;44.244;22.530;2022-10-16T02:01:45;18.50;;;16.77;;
56997;SDS011;42890;44.244;22.530;2022-10-16T02:04:15;21.48;;;19.45;;
56997;SDS011;42890;44.244;22.530;2022-10-16T02:06:43;20.67;;;17.92;;
56997;SDS011;42890;44.244;22.530;2022-10-16T02:09:09;22.92;;;17.70;;
56997;SDS011;42890;44.244;22.530;2022-10-16T02:11:35;24.98;;;18.65;;
56997;SDS011;42890;44.244;22.530;2022-10-16T02:14:02;20.40;;;18.30;;
56997;SDS011;42890;44.244;22.530;2022-10-16T02:16:37;19.98;;;17.98;;
56997;SDS011;42890;44.244;22.530;2022-10-16T02:19:04;21.60;;;19.23;;
56997;SDS011;42890;44.244;22.530;2022-10-16T02:21:53;21.33;;;18.73;;
56997;SDS011;42890;44.244;22.530;2022-10-16T02:24:28;20.75;;;18.30;;
56997;SDS011;42890;44.244;22.530;2022-10-16T02:27:03;20.35;;;18.20;;
56997;SDS011;42890;44.244;22.530;2022-10-16T02:29:33;19.55;;;17.45;;
56997;SDS011;42890;44.244;22.530;2022-10-16T02:32:03;18.85;;;16.85;;
56997;SDS011;42890;44.244;22.530;2022-10-16T02:34:30;17.50;;;15.73;;
56997;SDS011;42890;44.244;22.530;2022-10-16T02:36:58;17.20;;;15.40;;
56997;SDS011;42890;44.244;22.530;2022-10-16T02:39:26;16.60;;;14.45;;
56997;SDS011;42890;44.244;22.530;2022-10-16T02:41:53;16.38;;;14.45;;
56997;SDS011;42890;44.244;22.530;2022-10-16T02:44:19;17.42;;;15.32;;
56997;SDS011;42890;44.244;22.530;2022-10-16T02:46:45;19.85;;;15.60;;
56997;SDS011;42890;44.244;22.530;2022-10-16T02:49:11;18.60;;;16.35;;
56997;SDS011;42890;44.244;22.530;2022-10-16T02:51:37;20.90;;;16.30;;
56997;SDS011;42890;44.244;22.530;2022-10-16T02:54:03;18.17;;;16.35;;
56997;SDS011;42890;44.244;22.530;2022-10-16T02:56:30;19.08;;;17.17;;
56997;SDS011;42890;44.244;22.530;2022-10-16T02:58:56;22.38;;;18.55;;
56997;SDS011;42890;44.244;22.530;2022-10-16T03:01:22;18.15;;;16.35;;
56997;SDS011;42890;44.244;22.530;2022-10-16T03:03:49;20.27;;;18.20;;
56997;SDS011;42890;44.244;22.530;2022-10-16T03:06:15;19.33;;;16.85;;
56997;SDS011;42890;44.244;22.530;2022-10-16T03:08:41;19.25;;;17.38;;
56997;SDS011;42890;44.244;22.530;2022-10-16T03:11:07;18.63;;;15.85;;
56997;SDS011;42890;44.244;22.530;2022-10-16T03:13:34;17.67;;;16.00;;
56997;SDS011;42890;44.244;22.530;2022-10-16T03:16:00;21.17;;;17.77;;
56997;SDS011;42890;44.244;22.530;2022-10-16T03:18:26;28.13;;;22.13;;
56997;SDS011;42890;44.244;22.530;2022-10-16T03:20:52;24.23;;;21.75;;
56997;SDS011;42890;44.244;22.530;2022-10-16T03:23:18;25.33;;;22.92;;
56997;SDS011;42890;44.244;22.530;2022-10-16T03:25:44;25.45;;;22.55;;
56997;SDS011;42890;44.244;22.530;2022-10-16T03:28:10;29.77;;;26.77;;
56997;SDS011;42890;44.244;22.530;2022-10-16T03:30:36;33.33;;;29.73;;
56997;SDS011;42890;44.244;22.530;2022-10-16T03:33:04;30.05;;;27.08;;
56997;SDS011;42890;44.244;22.530;2022-10-16T03:35:31;33.20;;;27.05;;
56997;SDS011;42890;44.244;22.530;2022-10-16T03:37:58;33.83;;;30.30;;
56997;SDS011;42890;44.244;22.530;2022-10-16T03:40:24;34.67;;;31.25;;
56997;SDS011;42890;44.244;22.530;2022-10-16T03:42:50;35.35;;;28.90;;
56997;SDS011;42890;44.244;22.530;2022-10-16T03:45:16;30.90;;;27.58;;
56997;SDS011;42890;44.244;22.530;2022-10-16T03:47:42;32.60;;;27.70;;
56997;SDS011;42890;44.244;22.530;2022-10-16T03:50:08;28.40;;;25.45;;
56997;SDS011;42890;44.244;22.530;2022-10-16T03:52:35;28.60;;;25.08;;
56997;SDS011;42890;44.244;22.530;2022-10-16T03:55:01;30.52;;;25.95;;
56997;SDS011;42890;44.244;22.530;2022-10-16T03:57:27;27.35;;;22.85;;
56997;SDS011;42890;44.244;22.530;2022-10-16T03:59:53;26.58;;;22.17;;
56997;SDS011;42890;44.244;22.530;2022-10-16T04:02:19;25.08;;;22.38;;
56997;SDS011;42890;44.244;22.530;2022-10-16T04:04:45;25.55;;;22.77;;
56997;SDS011;42890;44.244;22.530;2022-10-16T04:07:11;33.63;;;23.92;;
56997;SDS011;42890;44.244;22.530;2022-10-16T04:09:38;28.63;;;24.27;;
56997;SDS011;42890;44.244;22.530;2022-10-16T04:12:04;30.73;;;24.45;;
56997;SDS011;42890;44.244;22.530;2022-10-16T04:14:30;29.17;;;25.10;;
56997;SDS011;42890;44.244;22.530;2022-10-16T04:16:56;31.55;;;28.35;;
56997;SDS011;42890;44.244;22.530;2022-10-16T04:19:22;31.25;;;28.20;;
56997;SDS011;42890;44.244;22.530;2022-10-16T04:21:48;32.67;;;28.90;;
56997;SDS011;42890;44.244;22.530;2022-10-16T04:24:14;32.53;;;29.23;;
56997;SDS011;42890;44.244;22.530;2022-10-16T04:26:40;26.55;;;23.85;;
56997;SDS011;42890;44.244;22.530;2022-10-16T04:29:07;24.23;;;21.13;;
56997;SDS011;42890;44.244;22.530;2022-10-16T04:31:33;25.10;;;19.02;;
56997;SDS011;42890;44.244;22.530;2022-10-16T04:33:59;23.23;;;20.13;;
56997;SDS011;42890;44.244;22.530;2022-10-16T04:36:25;33.30;;;29.95;;
56997;SDS011;42890;44.244;22.530;2022-10-16T04:38:51;25.55;;;23.08;;
56997;SDS011;42890;44.244;22.530;2022-10-16T04:41:17;23.88;;;21.60;;
56997;SDS011;42890;44.244;22.530;2022-10-16T04:43:43;23.85;;;21.33;;
56997;SDS011;42890;44.244;22.530;2022-10-16T04:46:10;24.85;;;21.10;;
56997;SDS011;42890;44.244;22.530;2022-10-16T04:48:36;24.00;;;21.60;;
56997;SDS011;42890;44.244;22.530;2022-10-16T04:51:02;19.88;;;17.70;;
56997;SDS011;42890;44.244;22.530;2022-10-16T04:53:28;20.60;;;17.90;;
56997;SDS011;42890;44.244;22.530;2022-10-16T04:55:54;21.10;;;18.95;;
56997;SDS011;42890;44.244;22.530;2022-10-16T04:58:22;21.00;;;18.70;;
56997;SDS011;42890;44.244;22.530;2022-10-16T05:00:48;19.45;;;17.48;;
56997;SDS011;42890;44.244;22.530;2022-10-16T05:03:14;20.15;;;18.15;;
56997;SDS011;42890;44.244;22.530;2022-10-16T05:05:43;21.75;;;17.73;;
56997;SDS011;42890;44.244;22.530;2022-10-16T05:08:10;18.45;;;16.52;;
56997;SDS011;42890;44.244;22.530;2022-10-16T05:10:36;19.42;;;17.35;;
56997;SDS011;42890;44.244;22.530;2022-10-16T05:13:02;19.85;;;17.80;;
56997;SDS011;42890;44.244;22.530;2022-10-16T05:15:28;18.70;;;16.77;;
56997;SDS011;42890;44.244;22.530;2022-10-16T05:17:55;17.55;;;15.82;;
56997;SDS011;42890;44.244;22.530;2022-10-16T05:20:21;17.05;;;15.35;;
56997;SDS011;42890;44.244;22.530;2022-10-16T05:22:48;17.27;;;15.65;;
56997;SDS011;42890;44.244;22.530;2022-10-16T05:25:14;19.63;;;15.15;;
56997;SDS011;42890;44.244;22.530;2022-10-16T05:27:40;17.13;;;15.52;;
56997;SDS011;42890;44.244;22.530;2022-10-16T05:30:07;18.92;;;16.17;;
56997;SDS011;42890;44.244;22.530;2022-10-16T05:32:33;19.58;;;15.93;;
56997;SDS011;42890;44.244;22.530;2022-10-16T05:34:59;17.90;;;16.00;;
56997;SDS011;42890;44.244;22.530;2022-10-16T05:37:27;19.58;;;17.77;;
56997;SDS011;42890;44.244;22.530;2022-10-16T05:39:53;21.58;;;17.60;;
56997;SDS011;42890;44.244;22.530;2022-10-16T05:42:19;20.60;;;17.98;;
56997;SDS011;42890;44.244;22.530;2022-10-16T05:44:45;19.15;;;17.30;;
56997;SDS011;42890;44.244;22.530;2022-10-16T05:47:14;19.08;;;17.13;;
56997;SDS011;42890;44.244;22.530;2022-10-16T05:49:40;20.55;;;16.70;;
56997;SDS011;42890;44.244;22.530;2022-10-16T05:52:06;18.92;;;16.85;;
56997;SDS011;42890;44.244;22.530;2022-10-16T05:54:32;20.52;;;18.23;;
56997;SDS011;42890;44.244;22.530;2022-10-16T05:56:59;18.85;;;16.08;;
56997;SDS011;42890;44.244;22.530;2022-10-16T05:59:25;22.25;;;18.35;;
56997;SDS011;42890;44.244;22.530;2022-10-16T06:01:51;19.67;;;17.63;;
56997;SDS011;42890;44.244;22.530;2022-10-16T06:04:18;25.30;;;19.48;;
56997;SDS011;42890;44.244;22.530;2022-10-16T06:06:45;22.48;;;18.15;;
56997;SDS011;42890;44.244;22.530;2022-10-16T06:09:11;22.23;;;19.27;;
56997;SDS011;42890;44.244;22.530;2022-10-16T06:11:37;29.15;;;20.13;;
56997;SDS011;42890;44.244;22.530;2022-10-16T06:14:03;22.73;;;18.48;;
56997;SDS011;42890;44.244;22.530;2022-10-16T06:16:32;59.95;;;53.42;;
56997;SDS011;42890;44.244;22.530;2022-10-16T06:18:58;38.63;;;34.30;;
56997;SDS011;42890;44.244;22.530;2022-10-16T06:21:25;35.10;;;31.23;;
56997;SDS011;42890;44.244;22.530;2022-10-16T06:23:52;39.67;;;35.35;;
56997;SDS011;42890;44.244;22.530;2022-10-16T06:26:19;33.28;;;27.73;;
56997;SDS011;42890;44.244;22.530;2022-10-16T06:28:46;22.67;;;20.30;;
56997;SDS011;42890;44.244;22.530;2022-10-16T06:31:13;26.38;;;23.75;;
56997;SDS011;42890;44.244;22.530;2022-10-16T06:33:39;28.95;;;25.02;;
56997;SDS011;42890;44.244;22.530;2022-10-16T06:36:12;34.58;;;25.92;;
56997;SDS011;42890;44.244;22.530;2022-10-16T06:38:38;20.38;;;18.45;;
56997;SDS011;42890;44.244;22.530;2022-10-16T06:41:05;33.50;;;24.38;;
56997;SDS011;42890;44.244;22.530;2022-10-16T06:43:31;23.40;;;20.90;;
56997;SDS011;42890;44.244;22.530;2022-10-16T06:45:58;20.33;;;17.08;;
56997;SDS011;42890;44.244;22.530;2022-10-16T06:48:24;48.50;;;34.70;;
56997;SDS011;42890;44.244;22.530;2022-10-16T06:51:01;48.03;;;32.00;;
56997;SDS011;42890;44.244;22.530;2022-10-16T06:53:28;30.65;;;25.27;;
56997;SDS011;42890;44.244;22.530;2022-10-16T06:55:55;23.95;;;21.27;;
56997;SDS011;42890;44.244;22.530;2022-10-16T06:58:21;20.17;;;16.90;;
56997;SDS011;42890;44.244;22.530;2022-10-16T07:00:47;17.40;;;15.77;;
56997;SDS011;42890;44.244;22.530;2022-10-16T07:03:13;17.85;;;15.52;;
56997;SDS011;42890;44.244;22.530;2022-10-16T07:05:40;18.60;;;15.90;;
56997;SDS011;42890;44.244;22.530;2022-10-16T07:08:06;16.30;;;14.70;;
56997;SDS011;42890;44.244;22.530;2022-10-16T07:10:33;44.65;;;28.25;;
56997;SDS011;42890;44.244;22.530;2022-10-16T07:12:59;32.97;;;22.58;;
56997;SDS011;42890;44.244;22.530;2022-10-16T07:15:26;21.05;;;17.45;;
56997;SDS011;42890;44.244;22.530;2022-10-16T07:17:52;20.60;;;18.20;;
56997;SDS011;42890;44.244;22.530;2022-10-16T07:20:19;19.33;;;15.75;;
56997;SDS011;42890;44.244;22.530;2022-10-16T07:22:45;17.58;;;14.40;;
56997;SDS011;42890;44.244;22.530;2022-10-16T07:25:11;17.60;;;15.82;;
56997;SDS011;42890;44.244;22.530;2022-10-16T07:27:38;21.35;;;15.88;;
56997;SDS011;42890;44.244;22.530;2022-10-16T07:30:04;18.20;;;16.40;;
56997;SDS011;42890;44.244;22.530;2022-10-16T07:32:31;17.80;;;16.08;;
56997;SDS011;42890;44.244;22.530;2022-10-16T07:34:57;17.05;;;15.50;;
56997;SDS011;42890;44.244;22.530;2022-10-16T07:37:23;18.92;;;16.05;;
56997;SDS011;42890;44.244;22.530;2022-10-16T07:39:49;18.33;;;16.42;;
56997;SDS011;42890;44.244;22.530;2022-10-16T07:42:15;19.88;;;17.30;;
56997;SDS011;42890;44.244;22.530;2022-10-16T07:44:41;32.80;;;23.55;;
56997;SDS011;42890;44.244;22.530;2022-10-16T07:47:08;24.52;;;21.95;;
56997;SDS011;42890;44.244;22.530;2022-10-16T07:49:34;20.60;;;16.85;;
56997;SDS011;42890;44.244;22.530;2022-10-16T07:52:00;30.38;;;18.42;;
56997;SDS011;42890;44.244;22.530;2022-10-16T07:54:26;36.03;;;18.05;;
56997;SDS011;42890;44.244;22.530;2022-10-16T07:56:52;20.33;;;16.90;;
56997;SDS011;42890;44.244;22.530;2022-10-16T07:59:19;19.70;;;16.35;;
56997;SDS011;42890;44.244;22.530;2022-10-16T08:01:45;22.10;;;17.10;;
56997;SDS011;42890;44.244;22.530;2022-10-16T08:04:11;18.10;;;16.50;;
56997;SDS011;42890;44.244;22.530;2022-10-16T08:06:38;38.38;;;33.17;;
56997;SDS011;42890;44.244;22.530;2022-10-16T08:09:05;21.83;;;17.13;;
56997;SDS011;42890;44.244;22.530;2022-10-16T08:11:31;17.52;;;15.05;;
56997;SDS011;42890;44.244;22.530;2022-10-16T08:13:57;28.40;;;24.77;;
56997;SDS011;42890;44.244;22.530;2022-10-16T08:16:24;30.77;;;23.08;;
56997;SDS011;42890;44.244;22.530;2022-10-16T08:18:50;35.22;;;26.85;;
56997;SDS011;42890;44.244;22.530;2022-10-16T08:21:17;31.02;;;24.15;;
56997;SDS011;42890;44.244;22.530;2022-10-16T08:23:43;24.42;;;21.80;;
56997;SDS011;42890;44.244;22.530;2022-10-16T08:26:10;27.75;;;22.73;;
56997;SDS011;42890;44.244;22.530;2022-10-16T08:28:36;41.30;;;32.72;;
56997;SDS011;42890;44.244;22.530;2022-10-16T08:31:06;31.17;;;27.58;;
56997;SDS011;42890;44.244;22.530;2022-10-16T08:33:32;27.77;;;24.88;;
56997;SDS011;42890;44.244;22.530;2022-10-16T08:36:00;28.38;;;22.60;;
56997;SDS011;42890;44.244;22.530;2022-10-16T08:38:26;24.33;;;21.63;;
56997;SDS011;42890;44.244;22.530;2022-10-16T08:40:52;29.73;;;22.27;;
56997;SDS011;42890;44.244;22.530;2022-10-16T08:50:57;17.75;;;16.00;;
56997;SDS011;42890;44.244;22.530;2022-10-16T08:53:25;18.67;;;16.92;;
56997;SDS011;42890;44.244;22.530;2022-10-16T08:55:53;23.88;;;17.40;;
56997;SDS011;42890;44.244;22.530;2022-10-16T08:58:20;27.90;;;18.30;;
56997;SDS011;42890;44.244;22.530;2022-10-16T09:00:51;21.13;;;18.27;;
56997;SDS011;42890;44.244;22.530;2022-10-16T09:03:22;29.13;;;22.25;;
56997;SDS011;42890;44.244;22.530;2022-10-16T09:05:52;18.55;;;16.05;;
56997;SDS011;42890;44.244;22.530;2022-10-16T09:11:11;16.85;;;15.10;;
56997;SDS011;42890;44.244;22.530;2022-10-16T09:13:43;19.38;;;15.32;;
56997;SDS011;42890;44.244;22.530;2022-10-16T09:21:08;17.52;;;14.43;;
56997;SDS011;42890;44.244;22.530;2022-10-16T09:23:36;26.45;;;14.82;;
56997;SDS011;42890;44.244;22.530;2022-10-16T09:26:02;20.40;;;14.80;;
56997;SDS011;42890;44.244;22.530;2022-10-16T09:28:28;17.33;;;13.55;;
56997;SDS011;42890;44.244;22.530;2022-10-16T09:30:55;17.00;;;13.63;;
56997;SDS011;42890;44.244;22.530;2022-10-16T09:33:22;16.75;;;14.13;;
56997;SDS011;42890;44.244;22.530;2022-10-16T09:35:50;16.05;;;14.02;;
56997;SDS011;42890;44.244;22.530;2022-10-16T09:38:25;23.27;;;12.20;;
56997;SDS011;42890;44.244;22.530;2022-10-16T09:40:51;12.45;;;11.27;;
56997;SDS011;42890;44.244;22.530;2022-10-16T09:43:20;17.65;;;12.48;;
56997;SDS011;42890;44.244;22.530;2022-10-16T09:45:54;15.07;;;12.13;;
56997;SDS011;42890;44.244;22.530;2022-10-16T09:48:20;15.68;;;12.02;;
56997;SDS011;42890;44.244;22.530;2022-10-16T09:50:57;16.55;;;12.02;;
56997;SDS011;42890;44.244;22.530;2022-10-16T09:53:23;16.40;;;12.40;;
56997;SDS011;42890;44.244;22.530;2022-10-16T09:55:52;18.75;;;12.50;;
56997;SDS011;42890;44.244;22.530;2022-10-16T09:58:21;18.40;;;12.93;;
56997;SDS011;42890;44.244;22.530;2022-10-16T10:00:48;20.60;;;11.68;;
56997;SDS011;42890;44.244;22.530;2022-10-16T10:03:21;12.57;;;10.98;;
56997;SDS011;42890;44.244;22.530;2022-10-16T10:05:53;14.68;;;11.07;;
56997;SDS011;42890;44.244;22.530;2022-10-16T10:08:19;12.05;;;10.48;;
56997;SDS011;42890;44.244;22.530;2022-10-16T10:10:46;12.20;;;11.00;;
56997;SDS011;42890;44.244;22.530;2022-10-16T10:13:20;11.73;;;10.30;;
56997;SDS011;42890;44.244;22.530;2022-10-16T10:15:47;14.18;;;11.35;;
56997;SDS011;42890;44.244;22.530;2022-10-16T10:18:18;11.68;;;10.52;;
56997;SDS011;42890;44.244;22.530;2022-10-16T10:20:46;18.63;;;11.90;;
56997;SDS011;42890;44.244;22.530;2022-10-16T10:23:23;12.18;;;10.93;;
56997;SDS011;42890;44.244;22.530;2022-10-16T10:31:17;14.32;;;10.27;;
56997;SDS011;42890;44.244;22.530;2022-10-16T10:34:04;15.32;;;10.80;;
56997;SDS011;42890;44.244;22.530;2022-10-16T10:36:36;15.60;;;10.63;;
56997;SDS011;42890;44.244;22.530;2022-10-16T10:39:15;15.48;;;10.23;;
56997;SDS011;42890;44.244;22.530;2022-10-16T10:44:21;11.68;;;9.45;;
56997;SDS011;42890;44.244;22.530;2022-10-16T10:49:28;10.88;;;9.15;;
56997;SDS011;42890;44.244;22.530;2022-10-16T10:54:35;10.52;;;8.77;;
56997;SDS011;42890;44.244;22.530;2022-10-16T11:02:10;13.45;;;9.82;;
56997;SDS011;42890;44.244;22.530;2022-10-16T11:07:15;11.68;;;9.50;;
56997;SDS011;42890;44.244;22.530;2022-10-16T11:09:51;13.40;;;8.25;;
56997;SDS011;42890;44.244;22.530;2022-10-16T11:14:55;13.63;;;9.85;;
56997;SDS011;42890;44.244;22.530;2022-10-16T11:27:40;17.17;;;8.32;;
56997;SDS011;42890;44.244;22.530;2022-10-16T11:30:13;14.35;;;10.82;;
56997;SDS011;42890;44.244;22.530;2022-10-16T11:32:49;26.08;;;10.32;;
56997;SDS011;42890;44.244;22.530;2022-10-16T11:35:23;12.20;;;9.60;;
56997;SDS011;42890;44.244;22.530;2022-10-16T11:40:28;8.90;;;7.03;;
56997;SDS011;42890;44.244;22.530;2022-10-16T11:42:57;10.35;;;7.90;;
56997;SDS011;42890;44.244;22.530;2022-10-16T11:47:57;11.23;;;8.30;;
56997;SDS011;42890;44.244;22.530;2022-10-16T11:50:25;12.18;;;7.50;;
56997;SDS011;42890;44.244;22.530;2022-10-16T11:55:41;9.77;;;8.05;;
56997;SDS011;42890;44.244;22.530;2022-10-16T11:58:16;9.27;;;6.80;;
56997;SDS011;42890;44.244;22.530;2022-10-16T12:00:45;11.27;;;9.27;;
56997;SDS011;42890;44.244;22.530;2022-10-16T12:08:17;9.82;;;6.78;;
56997;SDS011;42890;44.244;22.530;2022-10-16T12:10:44;8.63;;;6.03;;
56997;SDS011;42890;44.244;22.530;2022-10-16T12:16:05;12.55;;;6.47;;
56997;SDS011;42890;44.244;22.530;2022-10-16T12:18:31;9.05;;;7.38;;
56997;SDS011;42890;44.244;22.530;2022-10-16T12:20:58;10.77;;;7.15;;
56997;SDS011;42890;44.244;22.530;2022-10-16T12:23:29;12.85;;;7.10;;
56997;SDS011;42890;44.244;22.530;2022-10-16T12:26:00;8.93;;;6.00;;
56997;SDS011;42890;44.244;22.530;2022-10-16T12:28:28;9.13;;;7.45;;
56997;SDS011;42890;44.244;22.530;2022-10-16T12:33:39;9.18;;;6.20;;
56997;SDS011;42890;44.244;22.530;2022-10-16T12:36:13;12.02;;;5.38;;
56997;SDS011;42890;44.244;22.530;2022-10-16T12:38:47;12.75;;;6.57;;
56997;SDS011;42890;44.244;22.530;2022-10-16T12:41:23;8.45;;;6.20;;
56997;SDS011;42890;44.244;22.530;2022-10-16T12:43:49;8.77;;;6.80;;
56997;SDS011;42890;44.244;22.530;2022-10-16T12:48:42;13.35;;;11.90;;
56997;SDS011;42890;44.244;22.530;2022-10-16T12:51:55;12.40;;;7.82;;
56997;SDS011;42890;44.244;22.530;2022-10-16T12:54:15;19.15;;;13.02;;
56997;SDS011;42890;44.244;22.530;2022-10-16T13:01:50;12.95;;;8.27;;
56997;SDS011;42890;44.244;22.530;2022-10-16T13:04:30;20.23;;;13.55;;
56997;SDS011;42890;44.244;22.530;2022-10-16T13:20:11;12.57;;;8.98;;
56997;SDS011;42890;44.244;22.530;2022-10-16T13:25:16;14.48;;;8.48;;
56997;SDS011;42890;44.244;22.530;2022-10-16T13:28:00;11.43;;;7.63;;
56997;SDS011;42890;44.244;22.530;2022-10-16T13:30:28;11.98;;;8.07;;
56997;SDS011;42890;44.244;22.530;2022-10-16T13:33:02;7.03;;;6.00;;
56997;SDS011;42890;44.244;22.530;2022-10-16T13:35:30;6.78;;;5.68;;
56997;SDS011;42890;44.244;22.530;2022-10-16T13:38:31;7.95;;;6.97;;
56997;SDS011;42890;44.244;22.530;2022-10-16T13:41:00;10.32;;;7.38;;
56997;SDS011;42890;44.244;22.530;2022-10-16T13:45:59;14.68;;;10.73;;
56997;SDS011;42890;44.244;22.530;2022-10-16T13:48:27;16.13;;;12.45;;
56997;SDS011;42890;44.244;22.530;2022-10-16T13:51:14;10.50;;;6.20;;
56997;SDS011;42890;44.244;22.530;2022-10-16T13:53:39;10.70;;;7.88;;
56997;SDS011;42890;44.244;22.530;2022-10-16T13:56:12;8.48;;;7.50;;
56997;SDS011;42890;44.244;22.530;2022-10-16T13:58:39;15.30;;;7.50;;
56997;SDS011;42890;44.244;22.530;2022-10-16T14:01:14;9.18;;;6.85;;
56997;SDS011;42890;44.244;22.530;2022-10-16T14:03:41;8.15;;;7.10;;
56997;SDS011;42890;44.244;22.530;2022-10-16T14:06:11;11.65;;;7.90;;
56997;SDS011;42890;44.244;22.530;2022-10-16T14:08:40;14.02;;;10.25;;
56997;SDS011;42890;44.244;22.530;2022-10-16T14:11:08;9.48;;;7.95;;
56997;SDS011;42890;44.244;22.530;2022-10-16T14:13:37;9.27;;;6.45;;
56997;SDS011;42890;44.244;22.530;2022-10-16T14:16:07;8.35;;;6.60;;
56997;SDS011;42890;44.244;22.530;2022-10-16T14:18:34;8.48;;;6.68;;
56997;SDS011;42890;44.244;22.530;2022-10-16T14:21:05;8.77;;;6.40;;
56997;SDS011;42890;44.244;22.530;2022-10-16T14:23:37;10.63;;;7.10;;
56997;SDS011;42890;44.244;22.530;2022-10-16T14:28:38;10.55;;;7.30;;
56997;SDS011;42890;44.244;22.530;2022-10-16T14:34:02;11.52;;;10.25;;
56997;SDS011;42890;44.244;22.530;2022-10-16T14:36:29;13.30;;;9.80;;
56997;SDS011;42890;44.244;22.530;2022-10-16T14:41:25;20.02;;;17.85;;
56997;SDS011;42890;44.244;22.530;2022-10-16T14:43:55;18.02;;;15.70;;
56997;SDS011;42890;44.244;22.530;2022-10-16T14:46:23;14.55;;;10.60;;
56997;SDS011;42890;44.244;22.530;2022-10-16T14:48:59;20.13;;;11.38;;
56997;SDS011;42890;44.244;22.530;2022-10-16T14:51:26;15.20;;;11.32;;
56997;SDS011;42890;44.244;22.530;2022-10-16T14:53:52;16.80;;;11.00;;
56997;SDS011;42890;44.244;22.530;2022-10-16T14:56:22;14.63;;;11.82;;
56997;SDS011;42890;44.244;22.530;2022-10-16T14:58:49;16.58;;;12.57;;
56997;SDS011;42890;44.244;22.530;2022-10-16T15:01:16;13.43;;;12.02;;
56997;SDS011;42890;44.244;22.530;2022-10-16T15:03:42;13.20;;;11.88;;
56997;SDS011;42890;44.244;22.530;2022-10-16T15:06:12;18.70;;;11.68;;
56997;SDS011;42890;44.244;22.530;2022-10-16T15:08:38;15.13;;;10.02;;
56997;SDS011;42890;44.244;22.530;2022-10-16T15:11:05;16.40;;;11.77;;
56997;SDS011;42890;44.244;22.530;2022-10-16T15:13:31;15.93;;;12.60;;
56997;SDS011;42890;44.244;22.530;2022-10-16T15:15:57;11.75;;;10.55;;
56997;SDS011;42890;44.244;22.530;2022-10-16T15:18:23;13.68;;;10.80;;
56997;SDS011;42890;44.244;22.530;2022-10-16T15:20:50;11.40;;;10.27;;
56997;SDS011;42890;44.244;22.530;2022-10-16T15:23:20;15.30;;;11.55;;
56997;SDS011;42890;44.244;22.530;2022-10-16T15:25:56;22.80;;;20.42;;
56997;SDS011;42890;44.244;22.530;2022-10-16T15:28:22;18.33;;;16.40;;
56997;SDS011;42890;44.244;22.530;2022-10-16T15:30:50;18.58;;;13.95;;
56997;SDS011;42890;44.244;22.530;2022-10-16T15:33:17;15.85;;;13.13;;
56997;SDS011;42890;44.244;22.530;2022-10-16T15:35:46;13.95;;;12.43;;
56997;SDS011;42890;44.244;22.530;2022-10-16T15:38:13;13.10;;;11.75;;
56997;SDS011;42890;44.244;22.530;2022-10-16T15:40:40;13.73;;;12.32;;
56997;SDS011;42890;44.244;22.530;2022-10-16T15:43:06;16.17;;;12.00;;
56997;SDS011;42890;44.244;22.530;2022-10-16T15:45:32;18.10;;;13.30;;
56997;SDS011;42890;44.244;22.530;2022-10-16T15:47:58;20.85;;;17.77;;
56997;SDS011;42890;44.244;22.530;2022-10-16T15:50:25;24.98;;;19.00;;
56997;SDS011;42890;44.244;22.530;2022-10-16T15:52:52;22.35;;;19.83;;
56997;SDS011;42890;44.244;22.530;2022-10-16T15:55:18;37.60;;;28.15;;
56997;SDS011;42890;44.244;22.530;2022-10-16T15:57:44;37.22;;;33.40;;
56997;SDS011;42890;44.244;22.530;2022-10-16T16:00:15;39.58;;;35.88;;
56997;SDS011;42890;44.244;22.530;2022-10-16T16:02:41;30.55;;;27.42;;
56997;SDS011;42890;44.244;22.530;2022-10-16T16:05:08;47.47;;;28.15;;
56997;SDS011;42890;44.244;22.530;2022-10-16T16:07:36;59.85;;;53.50;;
56997;SDS011;42890;44.244;22.530;2022-10-16T16:10:04;41.92;;;35.92;;
56997;SDS011;42890;44.244;22.530;2022-10-16T16:12:31;36.10;;;30.08;;
56997;SDS011;42890;44.244;22.530;2022-10-16T16:14:57;25.50;;;22.75;;
56997;SDS011;42890;44.244;22.530;2022-10-16T16:17:23;24.23;;;20.67;;